createdAt,value
2018-11-27T00:01:10.557Z,18.00
2018-11-27T00:03:45.560Z,17.07
2018-11-27T00:06:13.986Z,16.17
2018-11-27T00:08:42.002Z,18.03
2018-11-27T00:11:09.928Z,15.73
2018-11-27T00:13:37.869Z,17.27
2018-11-27T00:16:06.094Z,16.30
2018-11-27T00:18:34.036Z,16.77
2018-11-27T00:21:01.989Z,16.73
2018-11-27T00:23:29.949Z,18.80
2018-11-27T00:25:57.933Z,17.00
2018-11-27T00:28:25.827Z,15.73
2018-11-27T00:30:53.765Z,18.43
2018-11-27T00:33:21.681Z,19.17
2018-11-27T00:35:49.576Z,19.47
2018-11-27T00:38:17.466Z,16.50
2018-11-27T00:40:45.443Z,18.13
2018-11-27T00:43:13.401Z,17.07
2018-11-27T00:45:41.380Z,18.70
2018-11-27T00:48:09.344Z,16.23
2018-11-27T00:50:37.343Z,14.50
2018-11-27T00:53:05.481Z,16.63
2018-11-27T00:55:33.453Z,15.17
2018-11-27T00:58:01.409Z,17.30
2018-11-27T01:00:29.410Z,16.17
2018-11-27T01:02:57.345Z,15.23
2018-11-27T01:05:25.229Z,17.60
2018-11-27T01:10:50.130Z,16.03
2018-11-27T01:13:18.001Z,13.37
2018-11-27T01:15:45.870Z,18.47
2018-11-27T01:18:13.835Z,16.57
2018-11-27T01:23:27.997Z,15.57
2018-11-27T01:25:55.959Z,14.17
2018-11-27T01:28:23.861Z,15.87
2018-11-27T01:30:51.819Z,15.47
2018-11-27T01:33:19.785Z,15.77
2018-11-27T01:35:48.116Z,17.67
2018-11-27T01:38:16.055Z,17.00
2018-11-27T01:40:44.061Z,15.10
2018-11-27T01:43:11.964Z,14.93
2018-11-27T01:45:39.910Z,17.73
2018-11-27T01:48:08.137Z,16.90
2018-11-27T01:50:36.590Z,16.90
2018-11-27T01:53:04.769Z,15.07
2018-11-27T01:55:32.721Z,20.20
2018-11-27T01:58:00.619Z,16.70
2018-11-27T02:00:29.349Z,16.60
2018-11-27T02:02:57.915Z,18.33
2018-11-27T02:05:27.945Z,18.17
2018-11-27T02:07:56.029Z,16.77
2018-11-27T02:10:24.548Z,17.97
2018-11-27T02:12:52.817Z,17.10
2018-11-27T02:15:23.077Z,17.97
2018-11-27T02:17:51.008Z,17.07
2018-11-27T02:20:18.994Z,18.83
2018-11-27T02:22:47.266Z,19.57
2018-11-27T02:25:16.618Z,18.23
2018-11-27T02:27:44.514Z,18.60
2018-11-27T02:30:12.982Z,19.77
2018-11-27T02:32:40.887Z,16.80
2018-11-27T02:35:09.638Z,16.97
2018-11-27T02:37:39.179Z,17.27
2018-11-27T02:40:08.379Z,17.87
2018-11-27T02:42:36.437Z,18.03
2018-11-27T02:45:05.237Z,17.03
2018-11-27T02:47:33.214Z,21.37
2018-11-27T02:50:01.144Z,18.87
2018-11-27T02:52:29.054Z,21.77
2018-11-27T02:54:56.974Z,16.00
2018-11-27T02:57:24.869Z,16.63
2018-11-27T02:59:52.820Z,19.43
2018-11-27T03:02:20.702Z,18.13
2018-11-27T03:04:48.676Z,16.33
2018-11-27T03:07:16.623Z,18.77
2018-11-27T03:09:44.537Z,20.40
2018-11-27T03:12:12.456Z,17.70
2018-11-27T03:14:40.394Z,17.57
2018-11-27T03:17:08.305Z,22.87
2018-11-27T03:19:36.277Z,16.60
2018-11-27T03:22:04.481Z,20.83
2018-11-27T03:24:32.453Z,18.77
2018-11-27T03:27:00.493Z,19.67
2018-11-27T03:29:28.385Z,20.30
2018-11-27T03:31:56.356Z,20.73
2018-11-27T03:34:24.330Z,20.60
2018-11-27T03:36:53.110Z,20.10
2018-11-27T03:39:21.121Z,22.37
2018-11-27T03:41:49.125Z,20.47
2018-11-27T03:44:17.100Z,21.33
2018-11-27T03:46:45.028Z,16.60
2018-11-27T03:49:12.956Z,21.33
2018-11-27T03:51:45.901Z,16.57
2018-11-27T03:54:13.791Z,17.77
2018-11-27T03:56:41.705Z,18.37
2018-11-27T03:59:09.631Z,19.33
2018-11-27T04:01:37.520Z,20.53
2018-11-27T04:04:10.000Z,20.73
2018-11-27T04:06:33.530Z,21.00
2018-11-27T04:09:01.423Z,22.63
2018-11-27T04:11:29.378Z,18.50
2018-11-27T04:13:57.325Z,20.93
2018-11-27T04:16:25.321Z,19.27
2018-11-27T04:18:53.274Z,23.67
2018-11-27T04:21:21.253Z,18.43
2018-11-27T04:23:49.187Z,20.40
2018-11-27T04:26:17.093Z,18.90
2018-11-27T04:28:45.079Z,18.13
2018-11-27T04:31:13.125Z,17.93
2018-11-27T04:33:47.649Z,22.30
2018-11-27T04:36:15.606Z,20.83
2018-11-27T04:38:43.630Z,23.03
2018-11-27T04:41:11.574Z,20.27
2018-11-27T04:43:39.518Z,19.23
2018-11-27T04:46:08.714Z,21.43
2018-11-27T04:48:36.693Z,24.47
2018-11-27T04:51:04.658Z,22.93
2018-11-27T04:53:32.622Z,24.30
2018-11-27T04:56:00.617Z,21.97
2018-11-27T04:58:28.577Z,20.27
2018-11-27T05:00:56.618Z,19.50
2018-11-27T05:03:24.565Z,19.07
2018-11-27T05:05:52.524Z,18.37
2018-11-27T05:08:21.351Z,23.80
2018-11-27T05:10:49.351Z,20.47
2018-11-27T05:13:17.265Z,21.07
2018-11-27T05:15:45.264Z,21.60
2018-11-27T05:18:13.214Z,20.63
2018-11-27T05:20:41.280Z,21.83
2018-11-27T05:23:09.280Z,22.53
2018-11-27T05:25:37.221Z,19.33
2018-11-27T05:28:05.432Z,23.37
2018-11-27T05:30:33.499Z,22.77
2018-11-27T05:33:01.418Z,23.97
2018-11-27T05:35:29.744Z,24.20
2018-11-27T05:37:58.226Z,24.77
2018-11-27T05:40:26.464Z,23.50
2018-11-27T05:42:56.917Z,23.53
2018-11-27T05:45:25.169Z,24.03
2018-11-27T05:47:53.074Z,24.07
2018-11-27T05:50:20.997Z,21.80
2018-11-27T05:52:48.897Z,22.93
2018-11-27T05:55:17.263Z,23.50
2018-11-27T05:57:45.745Z,25.13
2018-11-27T06:00:14.242Z,29.00
2018-11-27T06:02:42.207Z,21.40
2018-11-27T06:05:10.892Z,27.37
2018-11-27T06:07:38.845Z,25.30
2018-11-27T06:10:07.581Z,27.47
2018-11-27T06:12:35.522Z,25.97
2018-11-27T06:15:03.605Z,24.17
2018-11-27T06:17:31.549Z,24.30
2018-11-27T06:19:59.549Z,24.47
2018-11-27T06:22:27.521Z,24.63
2018-11-27T06:24:55.470Z,23.37
2018-11-27T06:27:23.349Z,26.80
2018-11-27T06:29:51.305Z,22.17
2018-11-27T06:32:21.471Z,23.33
2018-11-27T06:34:47.322Z,21.93
2018-11-27T06:37:15.321Z,27.27
2018-11-27T06:39:43.598Z,27.67
2018-11-27T06:42:11.474Z,25.13
2018-11-27T06:44:39.529Z,22.50
2018-11-27T06:47:07.509Z,24.93
2018-11-27T06:49:35.477Z,26.20
2018-11-27T06:52:03.570Z,23.57
2018-11-27T06:54:31.622Z,25.47
2018-11-27T06:56:59.592Z,26.30
2018-11-27T06:59:27.557Z,25.97
2018-11-27T07:01:56.543Z,24.37
2018-11-27T07:04:24.773Z,25.33
2018-11-27T07:06:52.693Z,24.50
2018-11-27T07:09:20.610Z,25.93
2018-11-27T07:11:48.728Z,24.03
2018-11-27T07:14:16.586Z,21.30
2018-11-27T07:16:45.490Z,22.60
2018-11-27T07:19:13.442Z,24.23
2018-11-27T07:21:41.413Z,28.53
2018-11-27T07:24:09.361Z,24.33
2018-11-27T07:26:37.383Z,25.73
2018-11-27T07:29:15.367Z,22.63
2018-11-27T07:31:43.433Z,24.50
2018-11-27T07:34:11.414Z,23.30
2018-11-27T07:36:39.449Z,21.73
2018-11-27T07:39:07.367Z,25.60
2018-11-27T07:41:35.327Z,24.50
2018-11-27T07:44:03.406Z,24.10
2018-11-27T07:46:31.366Z,23.27
2018-11-27T07:48:59.393Z,26.07
2018-11-27T07:51:27.401Z,24.00
2018-11-27T07:53:55.374Z,24.77
2018-11-27T07:56:23.333Z,26.40
2018-11-27T07:58:51.315Z,23.10
2018-11-27T08:01:19.493Z,24.23
2018-11-27T08:03:48.062Z,21.40
2018-11-27T08:06:16.030Z,19.73
2018-11-27T08:08:43.910Z,21.53
2018-11-27T08:11:12.181Z,22.07
2018-11-27T08:13:40.133Z,23.30
2018-11-27T08:16:08.137Z,24.40
2018-11-27T08:18:37.290Z,22.70
2018-11-27T08:21:05.172Z,22.90
2018-11-27T08:23:33.271Z,24.90
2018-11-27T08:26:01.205Z,25.60
2018-11-27T08:28:29.242Z,25.03
2018-11-27T08:30:57.241Z,23.10
2018-11-27T08:33:25.148Z,20.90
2018-11-27T08:35:53.094Z,27.00
2018-11-27T08:38:21.053Z,26.10
2018-11-27T08:40:49.038Z,22.53
2018-11-27T08:43:17.006Z,21.37
2018-11-27T08:45:45.046Z,23.60
2018-11-27T08:48:13.057Z,24.93
2018-11-27T08:50:41.025Z,21.13
2018-11-27T08:53:08.973Z,20.00
2018-11-27T08:55:41.333Z,23.87
2018-11-27T08:58:12.286Z,22.40
2018-11-27T09:00:44.981Z,24.80
2018-11-27T09:03:12.954Z,25.07
2018-11-27T09:05:40.912Z,20.10
2018-11-27T09:08:08.920Z,20.83
2018-11-27T09:10:39.321Z,22.87
2018-11-27T09:13:07.250Z,22.20
2018-11-27T09:15:35.428Z,23.23
2018-11-27T09:18:11.110Z,23.73
2018-11-27T09:20:43.627Z,21.33
2018-11-27T09:23:11.642Z,22.20
2018-11-27T09:25:39.605Z,23.27
2018-11-27T09:28:07.568Z,23.97
2018-11-27T09:30:37.827Z,24.20
2018-11-27T09:33:06.084Z,21.73
2018-11-27T09:35:34.049Z,27.50
2018-11-27T09:38:01.932Z,26.77
2018-11-27T09:40:31.357Z,26.47
2018-11-27T09:42:59.293Z,24.83
2018-11-27T09:45:27.316Z,25.77
2018-11-27T09:47:55.960Z,27.17
2018-11-27T09:50:25.172Z,23.33
2018-11-27T09:52:53.205Z,28.60
2018-11-27T09:55:21.692Z,27.33
2018-11-27T09:57:49.783Z,26.67
2018-11-27T10:00:22.067Z,27.77
2018-11-27T10:02:50.318Z,24.33
2018-11-27T10:05:18.370Z,27.10
2018-11-27T10:07:48.152Z,26.20
2018-11-27T10:10:16.780Z,28.10
2018-11-27T10:12:46.694Z,25.93
2018-11-27T10:15:15.286Z,25.37
2018-11-27T10:17:43.446Z,24.03
2018-11-27T10:20:12.245Z,26.37
2018-11-27T10:22:42.895Z,26.83
2018-11-27T10:25:11.163Z,25.03
2018-11-27T10:27:39.414Z,27.23
2018-11-27T10:30:10.576Z,25.97
2018-11-27T10:32:38.549Z,28.37
2018-11-27T10:35:07.645Z,25.17
2018-11-27T10:37:35.606Z,27.97
2018-11-27T10:40:03.774Z,27.17
2018-11-27T10:42:31.763Z,27.73
2018-11-27T10:44:59.721Z,27.57
2018-11-27T10:47:28.398Z,28.23
2018-11-27T10:49:55.944Z,25.13
2018-11-27T10:52:23.622Z,29.23
2018-11-27T10:54:51.598Z,26.67
2018-11-27T10:57:19.676Z,28.07
2018-11-27T10:59:47.641Z,26.80
2018-11-27T11:02:21.171Z,23.43
2018-11-27T11:04:49.393Z,28.40
2018-11-27T11:07:17.389Z,27.43
2018-11-27T11:09:46.428Z,27.47
2018-11-27T11:12:14.555Z,27.27
2018-11-27T11:14:42.529Z,24.03
2018-11-27T11:17:10.489Z,25.47
2018-11-27T11:19:38.574Z,26.23
2018-11-27T11:22:07.169Z,27.83
2018-11-27T11:24:36.915Z,26.33
2018-11-27T11:27:05.000Z,28.43
2018-11-27T11:29:32.889Z,27.13
2018-11-27T11:32:00.765Z,28.33
2018-11-27T11:34:28.726Z,26.27
2018-11-27T11:36:56.689Z,25.73
2018-11-27T11:39:24.678Z,25.63
2018-11-27T11:41:52.697Z,30.70
2018-11-27T11:44:22.161Z,30.13
2018-11-27T11:46:50.126Z,28.27
2018-11-27T11:49:18.074Z,29.03
2018-11-27T11:51:45.954Z,28.00
2018-11-27T11:54:13.872Z,26.63
2018-11-27T11:56:41.873Z,29.53
2018-11-27T11:59:09.760Z,31.10
2018-11-27T12:01:37.735Z,32.37
2018-11-27T12:04:05.915Z,27.73
2018-11-27T12:06:33.970Z,30.33
2018-11-27T12:09:01.921Z,28.90
2018-11-27T12:11:29.897Z,26.80
2018-11-27T12:13:57.874Z,27.87
2018-11-27T12:16:25.938Z,24.90
2018-11-27T12:18:53.903Z,25.63
2018-11-27T12:21:21.789Z,24.23
2018-11-27T12:23:49.752Z,26.53
2018-11-27T12:26:17.808Z,26.13
2018-11-27T12:28:45.691Z,30.67
2018-11-27T12:31:13.623Z,27.37
2018-11-27T12:33:41.522Z,26.83
2018-11-27T12:36:09.494Z,30.47
2018-11-27T12:38:37.575Z,26.37
2018-11-27T12:41:10.174Z,26.07
2018-11-27T12:43:34.114Z,27.73
2018-11-27T12:46:02.186Z,27.97
2018-11-27T12:48:30.230Z,25.13
2018-11-27T12:50:58.222Z,25.03
2018-11-27T12:53:26.252Z,26.10
2018-11-27T12:55:54.271Z,26.90
2018-11-27T12:58:22.234Z,27.40
2018-11-27T13:00:50.208Z,26.73
2018-11-27T13:03:18.174Z,32.20
2018-11-27T13:05:46.361Z,27.53
2018-11-27T13:08:15.042Z,28.80
2018-11-27T13:10:43.005Z,26.40
2018-11-27T13:13:11.069Z,31.20
2018-11-27T13:15:40.752Z,27.40
2018-11-27T13:18:09.066Z,27.07
2018-11-27T13:20:37.137Z,30.83
2018-11-27T13:23:05.114Z,25.97
2018-11-27T13:25:33.067Z,26.67
2018-11-27T13:28:00.984Z,30.33
2018-11-27T13:30:29.932Z,30.33
2018-11-27T13:33:01.682Z,34.30
2018-11-27T13:35:29.574Z,30.80
2018-11-27T13:37:57.522Z,34.60
2018-11-27T13:40:26.638Z,30.00
2018-11-27T13:42:54.581Z,31.27
2018-11-27T13:45:22.565Z,31.67
2018-11-27T13:47:50.543Z,29.70
2018-11-27T13:50:18.506Z,32.83
2018-11-27T13:52:46.471Z,29.70
2018-11-27T13:55:15.179Z,36.37
2018-11-27T13:57:43.122Z,30.03
2018-11-27T14:00:11.737Z,31.57
2018-11-27T14:02:39.781Z,26.87
2018-11-27T14:05:08.745Z,27.73
2018-11-27T14:07:36.646Z,32.53
2018-11-27T14:10:05.646Z,31.33
2018-11-27T14:12:33.709Z,35.23
2018-11-27T14:15:01.711Z,30.00
2018-11-27T14:17:29.643Z,28.80
2018-11-27T14:19:57.607Z,30.23
2018-11-27T14:22:25.650Z,31.53
2018-11-27T14:24:53.658Z,26.17
2018-11-27T14:27:21.617Z,28.70
2018-11-27T14:29:49.582Z,32.07
2018-11-27T14:32:17.549Z,33.27
2018-11-27T14:34:45.713Z,27.27
2018-11-27T14:37:13.610Z,29.20
2018-11-27T14:39:41.558Z,36.57
2018-11-27T14:42:09.618Z,31.90
2018-11-27T14:44:37.614Z,30.30
2018-11-27T14:47:07.616Z,28.20
2018-11-27T14:49:35.605Z,27.50
2018-11-27T14:52:06.994Z,30.57
2018-11-27T14:54:35.120Z,29.90
2018-11-27T14:57:03.098Z,31.90
2018-11-27T14:59:31.057Z,32.13
2018-11-27T15:01:59.135Z,35.53
2018-11-27T15:04:27.323Z,29.23
2018-11-27T15:06:55.214Z,31.63
2018-11-27T15:09:24.205Z,29.57
2018-11-27T15:11:52.185Z,31.10
2018-11-27T15:14:25.056Z,29.43
2018-11-27T15:16:48.113Z,29.60
2018-11-27T15:19:16.094Z,72.10
2018-11-27T15:21:44.073Z,42.37
2018-11-27T15:24:12.101Z,31.10
2018-11-27T15:26:40.027Z,28.83
2018-11-27T15:29:07.999Z,26.20
2018-11-27T15:31:35.941Z,30.50
2018-11-27T15:34:03.979Z,27.40
2018-11-27T15:36:32.019Z,27.57
2018-11-27T15:38:59.924Z,25.67
2018-11-27T15:41:27.870Z,30.17
2018-11-27T15:43:55.764Z,26.50
2018-11-27T15:46:23.674Z,27.70
2018-11-27T15:48:52.842Z,28.60
2018-11-27T15:51:20.772Z,27.97
2018-11-27T15:53:48.709Z,26.13
2018-11-27T15:56:16.642Z,28.00
2018-11-27T15:58:44.525Z,24.90
2018-11-27T16:01:12.477Z,27.43
2018-11-27T16:03:41.155Z,27.27
2018-11-27T16:06:09.164Z,41.23
2018-11-27T16:08:37.046Z,28.87
2018-11-27T16:11:05.015Z,28.70
2018-11-27T16:13:32.905Z,28.83
2018-11-27T16:16:00.814Z,26.33
2018-11-27T16:18:28.823Z,26.07
2018-11-27T16:20:56.795Z,26.30
2018-11-27T16:23:24.701Z,24.70
2018-11-27T16:25:53.632Z,27.87
2018-11-27T16:28:21.621Z,27.07
2018-11-27T16:30:49.507Z,30.43
2018-11-27T16:33:17.429Z,24.97
2018-11-27T16:35:45.321Z,26.67
2018-11-27T16:38:13.218Z,26.50
2018-11-27T16:40:41.249Z,28.30
2018-11-27T16:43:09.177Z,24.77
2018-11-27T16:45:37.045Z,26.87
2018-11-27T16:48:05.203Z,28.50
2018-11-27T16:50:33.105Z,29.77
2018-11-27T16:53:01.092Z,28.43
2018-11-27T16:55:28.973Z,49.20
2018-11-27T16:57:56.861Z,38.97
2018-11-27T17:00:26.118Z,30.17
2018-11-27T17:02:54.647Z,31.23
2018-11-27T17:05:22.589Z,29.67
2018-11-27T17:07:50.550Z,31.47
2018-11-27T17:10:18.929Z,96.63
2018-11-27T17:12:47.168Z,53.67
2018-11-27T17:15:16.621Z,35.13
2018-11-27T17:17:44.500Z,29.33
2018-11-27T17:20:21.590Z,31.67
2018-11-27T17:22:49.511Z,35.30
2018-11-27T17:25:17.398Z,36.63
2018-11-27T17:27:45.365Z,33.30
2018-11-27T17:30:14.678Z,32.27
2018-11-27T17:32:42.666Z,28.83
2018-11-27T17:35:10.913Z,56.40
2018-11-27T17:37:38.894Z,35.63
2018-11-27T17:40:08.805Z,27.90
2018-11-27T17:42:36.685Z,27.73
2018-11-27T17:45:06.065Z,29.50
2018-11-27T17:47:33.948Z,31.37
2018-11-27T17:50:02.025Z,31.00
2018-11-27T17:52:29.982Z,30.23
2018-11-27T17:54:57.872Z,30.47
2018-11-27T17:57:25.934Z,29.50
2018-11-27T17:59:53.897Z,30.13
2018-11-27T18:02:22.494Z,30.07
2018-11-27T18:04:51.801Z,32.30
2018-11-27T18:07:20.754Z,37.07
2018-11-27T18:09:49.491Z,32.43
2018-11-27T18:12:18.690Z,26.97
2018-11-27T18:14:47.751Z,29.93
2018-11-27T18:17:17.051Z,33.40
2018-11-27T18:19:45.019Z,32.87
2018-11-27T18:22:12.920Z,37.30
2018-11-27T18:24:40.787Z,30.87
2018-11-27T18:27:08.689Z,31.47
2018-11-27T18:29:36.578Z,28.17
2018-11-27T18:32:04.679Z,31.13
2018-11-27T18:34:32.579Z,26.83
2018-11-27T18:37:00.477Z,29.80
2018-11-27T18:39:28.369Z,30.23
2018-11-27T18:41:56.307Z,27.47
2018-11-27T18:44:24.238Z,29.07
2018-11-27T18:46:52.226Z,36.27
2018-11-27T18:49:20.199Z,33.57
2018-11-27T18:51:51.053Z,28.30
2018-11-27T18:54:18.970Z,31.60
2018-11-27T18:56:46.937Z,25.83
2018-11-27T18:59:14.836Z,30.00
2018-11-27T19:01:42.713Z,26.97
2018-11-27T19:04:10.613Z,29.63
2018-11-27T19:06:38.591Z,29.60
2018-11-27T19:09:07.895Z,31.47
2018-11-27T19:11:35.991Z,29.83
2018-11-27T19:14:03.934Z,32.20
2018-11-27T19:16:31.891Z,30.97
2018-11-27T19:18:59.779Z,32.60
2018-11-27T19:21:32.084Z,29.60
2018-11-27T19:24:00.005Z,33.00
2018-11-27T19:26:27.910Z,42.50
2018-11-27T19:28:55.905Z,30.23
2018-11-27T19:31:27.977Z,31.50
2018-11-27T19:34:07.869Z,32.07
2018-11-27T19:36:35.831Z,30.13
2018-11-27T19:39:04.889Z,29.70
2018-11-27T19:41:32.870Z,28.67
2018-11-27T19:44:00.744Z,30.47
2018-11-27T19:46:28.687Z,32.67
2018-11-27T19:48:56.561Z,28.47
2018-11-27T19:51:25.209Z,29.67
2018-11-27T19:53:53.083Z,31.10
2018-11-27T19:56:20.976Z,30.00
2018-11-27T19:58:48.877Z,28.73
2018-11-27T20:01:17.850Z,28.93
2018-11-27T20:03:45.725Z,31.17
2018-11-27T20:06:13.617Z,29.10
2018-11-27T20:08:41.517Z,28.73
2018-11-27T20:11:10.416Z,28.43
2018-11-27T20:13:39.334Z,31.43
2018-11-27T20:16:07.318Z,27.77
2018-11-27T20:18:36.298Z,27.73
2018-11-27T20:21:04.178Z,29.63
2018-11-27T20:23:32.815Z,29.87
2018-11-27T20:26:00.680Z,26.37
2018-11-27T20:28:28.616Z,31.57
2018-11-27T20:30:56.525Z,31.43
2018-11-27T20:33:24.509Z,30.83
2018-11-27T20:35:52.470Z,31.93
2018-11-27T20:38:20.361Z,28.73
2018-11-27T20:40:48.480Z,28.17
2018-11-27T20:43:16.269Z,30.90
2018-11-27T20:45:44.165Z,28.77
2018-11-27T20:48:14.611Z,29.80
2018-11-27T20:50:42.529Z,30.20
2018-11-27T20:53:10.518Z,28.40
2018-11-27T20:55:39.994Z,27.13
2018-11-27T20:58:08.298Z,31.63
2018-11-27T21:00:36.913Z,31.43
2018-11-27T21:03:05.205Z,28.60
2018-11-27T21:05:33.126Z,32.30
2018-11-27T21:08:01.006Z,29.37
2018-11-27T21:10:28.906Z,30.53
2018-11-27T21:12:56.897Z,30.33
2018-11-27T21:15:24.781Z,30.67
2018-11-27T21:17:52.661Z,30.23
2018-11-27T21:20:20.630Z,33.90
2018-11-27T21:22:48.554Z,30.50
2018-11-27T21:25:17.074Z,36.77
2018-11-27T21:27:46.748Z,33.20
2018-11-27T21:30:15.121Z,30.47
2018-11-27T21:32:43.114Z,31.87
2018-11-27T21:35:11.515Z,32.43
2018-11-27T21:37:39.425Z,31.43
2018-11-27T21:40:08.313Z,31.67
2018-11-27T21:42:36.237Z,30.93
2018-11-27T21:45:34.716Z,35.80
2018-11-27T21:48:02.742Z,34.00
2018-11-27T21:50:36.156Z,33.37
2018-11-27T21:53:04.065Z,29.50
2018-11-27T21:55:32.036Z,33.30
2018-11-27T21:57:59.929Z,35.80
2018-11-27T22:00:28.109Z,30.80
2018-11-27T22:02:56.019Z,32.17
2018-11-27T22:05:23.897Z,32.80
2018-11-27T22:07:51.768Z,33.70
2018-11-27T22:10:20.504Z,40.97
2018-11-27T22:12:49.084Z,31.97
2018-11-27T22:15:17.722Z,33.53
2018-11-27T22:17:45.589Z,31.93
2018-11-27T22:20:13.575Z,32.53
2018-11-27T22:22:41.457Z,34.47
2018-11-27T22:25:09.833Z,33.10
2018-11-27T22:27:37.745Z,28.57
2018-11-27T22:30:10.186Z,33.23
2018-11-27T22:32:38.270Z,29.33
2018-11-27T22:35:06.338Z,32.57
2018-11-27T22:37:34.438Z,34.63
2018-11-27T22:40:02.349Z,29.43
2018-11-27T22:42:30.417Z,36.40
2018-11-27T22:44:58.381Z,35.47
2018-11-27T22:47:26.374Z,30.23
2018-11-27T22:49:54.313Z,31.40
2018-11-27T22:52:22.199Z,34.50
2018-11-27T22:54:55.161Z,35.83
2018-11-27T22:57:23.129Z,29.80
2018-11-27T22:59:51.113Z,34.43
2018-11-27T23:02:19.721Z,31.10
2018-11-27T23:04:47.661Z,29.47
2018-11-27T23:07:21.034Z,30.47
2018-11-27T23:09:49.965Z,29.47
2018-11-27T23:12:17.936Z,32.40
2018-11-27T23:14:45.814Z,31.60
2018-11-27T23:17:13.770Z,30.27
2018-11-27T23:19:41.733Z,31.77
2018-11-27T23:22:09.720Z,30.90
2018-11-27T23:24:37.673Z,35.07
2018-11-27T23:27:05.697Z,32.37
2018-11-27T23:29:33.607Z,32.30
2018-11-27T23:32:01.510Z,29.73
2018-11-27T23:34:29.488Z,31.87
2018-11-27T23:36:57.506Z,33.53
2018-11-27T23:39:25.423Z,32.07
2018-11-27T23:41:53.316Z,34.67
2018-11-27T23:44:21.209Z,33.67
2018-11-27T23:46:49.169Z,32.63
2018-11-27T23:49:17.068Z,30.80
2018-11-27T23:51:47.642Z,32.13
2018-11-27T23:54:15.546Z,32.17
2018-11-27T23:56:48.589Z,33.00
2018-11-27T23:59:11.317Z,33.17
